SV6NOB-2 Loannina GR current weather conditions

sailwx.info

Wind at 2 knots gusting 4

Air temperature 27.2° C
Dewpoint -21.7° C

Last reported at 2019-Sep-16 16:00 UTC.
Time now 2019-Sep-16 16:26 UTC

Location: N 39°40' E 020°51'.
View on Google Maps.

See reports from other nearby stations

  
Tides and Currents Weather Stations Pressure Air Temp Water Temp Dewpoint Dewpoint Depression Visibility Wind Speed Wind Dir Waves Ship Positions
date/time (UTC)wind fromknots sea level pressurealtimeterstation pressurevisibilityair tempwater tempwave heightnotes
2019-Sep-16 16:00 27.2
2019-Sep-16 15:52 270 3 gusting 5 27.2
2019-Sep-16 15:44 292 5 gusting 6 27.8
2019-Sep-16 15:35 292 1 gusting 3 28.9
2019-Sep-16 15:27 270 2 gusting 4 28.9
2019-Sep-16 15:20 315 3 gusting 5 28.9
2019-Sep-16 15:12 045 5 gusting 6 29.4
2019-Sep-16 15:04 225 3 gusting 5 29.4
2019-Sep-16 14:56 30.0
2019-Sep-16 14:47 315 4 gusting 5 30.0
2019-Sep-16 14:39 045 4 gusting 6 30.0
2019-Sep-16 14:30 180 5 gusting 6 30.6
2019-Sep-16 14:23 022 6 gusting 7 30.6
2019-Sep-16 14:16 30.6
2019-Sep-16 14:07 270 3 gusting 5 31.1
2019-Sep-16 13:58 31.1
2019-Sep-16 13:50 247 2 gusting 3 30.6
2019-Sep-16 13:41 022 4 gusting 5 30.0
2019-Sep-16 13:33 31.1
2019-Sep-16 13:26 30.6
2019-Sep-16 13:19 30.6
2019-Sep-16 13:10 30.6
2019-Sep-16 13:02 30.6
2019-Sep-16 12:53 30.6
2019-Sep-16 12:45 315 5 gusting 6 30.6
2019-Sep-16 12:37 045 2 gusting 4 30.0
2019-Sep-16 12:30 315 6 gusting 7 30.0
2019-Sep-16 12:21 30.0
2019-Sep-16 12:14 30.6
2019-Sep-16 12:06 135 5 gusting 6 30.6
2019-Sep-16 11:58 29.4
2019-Sep-16 11:50 045 4 gusting 5 30.0
2019-Sep-16 11:42 30.0
2019-Sep-16 11:35 315 4 gusting 5 30.0
2019-Sep-16 11:28 315 2 gusting 5 30.6
2019-Sep-16 11:20 315 3 gusting 4 29.4
2019-Sep-16 11:12 315 2 gusting 4 29.4
2019-Sep-16 11:04 315 6 gusting 6 29.4
2019-Sep-16 10:55 28.9
2019-Sep-16 10:47 315 6 gusting 7 28.9
2019-Sep-16 10:39 315 4 gusting 5 28.3
2019-Sep-16 10:31 28.3
2019-Sep-16 10:23 045 3 gusting 5 28.3
2019-Sep-16 10:15 270 4 gusting 5 27.8
2019-Sep-16 10:06 27.8
2019-Sep-16 09:59 045 3 gusting 5 26.7
2019-Sep-16 09:50 045 6 gusting 6 27.2
2019-Sep-16 09:42 337 3 gusting 4 26.7
2019-Sep-16 09:33 045 3 gusting 4 26.7
2019-Sep-16 09:26 292 2 gusting 4 26.7
2019-Sep-16 09:17 315 5 gusting 5 26.1
2019-Sep-16 09:10 26.1
2019-Sep-16 09:02 090 2 gusting 3 26.1
2019-Sep-16 08:54 337 2 gusting 2 26.1
2019-Sep-16 08:47 045 0 gusting 2 25.6
2019-Sep-16 08:38 25.0
2019-Sep-16 08:31 25.0
2019-Sep-16 08:22 24.4
2019-Sep-16 08:13 337 0 gusting 1 23.3
2019-Sep-16 08:06 022 1 gusting 2 23.9
2019-Sep-16 07:58 24.4
2019-Sep-16 07:50 180 23.9
2019-Sep-16 07:41 090 0 gusting 2 22.2
2019-Sep-16 07:32 045 2 gusting 2 21.7
2019-Sep-16 07:24 225 1 gusting 2 20.6
2019-Sep-16 07:16 270 0 gusting 1 20.6
2019-Sep-16 07:08 045 1 gusting 2 19.4
2019-Sep-16 07:00 225 0 gusting 1 19.4
2019-Sep-16 06:53 045 0 gusting 1 19.4
2019-Sep-16 06:45 18.9
2019-Sep-16 06:36 045 1 gusting 2 18.9
2019-Sep-16 06:28 045 0 gusting 1 18.9
2019-Sep-16 06:19 315 1 gusting 2 18.3
2019-Sep-16 06:12 18.9
2019-Sep-16 06:03 045 1 gusting 2 18.3
2019-Sep-16 05:56 045 2 gusting 2 17.8
2019-Sep-16 05:47 045 3 gusting 4 18.3
2019-Sep-16 05:40 090 1 gusting 2 19.4
2019-Sep-16 05:31 225 18.3
2019-Sep-16 05:22 045 1 gusting 2 17.8
2019-Sep-16 05:15 045 17.2
2019-Sep-16 05:06 16.1
2019-Sep-16 04:58 045 0 gusting 1 15.6
2019-Sep-16 04:50 14.4
2019-Sep-16 04:42 315 2 gusting 2 14.4
2019-Sep-16 04:33 14.4
2019-Sep-16 04:25 14.4
2019-Sep-16 04:17 14.4
2019-Sep-16 04:10 14.4
2019-Sep-16 04:02 14.4
2019-Sep-16 03:54 14.4
2019-Sep-16 03:45 14.4
2019-Sep-16 03:37 14.4
2019-Sep-16 03:30 315 2 gusting 2 14.4
2019-Sep-16 03:22 15.0
2019-Sep-16 03:15 315 0 gusting 1 15.0
2019-Sep-16 03:06 315 2 gusting 2 15.0
2019-Sep-16 02:58 15.6
2019-Sep-16 02:50 15.6
2019-Sep-16 02:42 15.6
2019-Sep-16 02:34 15.6
2019-Sep-16 02:25 15.6
2019-Sep-16 02:18 15.6
2019-Sep-16 02:10 337 0 gusting 1 15.6
2019-Sep-16 02:03 045 1 gusting 2 15.6
2019-Sep-16 01:55 16.1
2019-Sep-16 01:47 337 2 gusting 2 15.6
2019-Sep-16 01:38 045 2 gusting 2 16.1
2019-Sep-16 01:29 16.1
2019-Sep-16 01:21 16.1
2019-Sep-16 01:13 16.1
2019-Sep-16 01:05 16.1
2019-Sep-16 00:57 16.1
2019-Sep-16 00:50 16.7
2019-Sep-16 00:42 16.7
2019-Sep-16 00:34 315 0 gusting 1 17.2
2019-Sep-16 00:26 045 0 gusting 1 17.2
2019-Sep-16 00:18 045 1 gusting 2 17.8
2019-Sep-16 00:09 225 17.8
2019-Sep-16 00:01 135 0 gusting 1 17.8
2019-Sep-15 23:52 17.8
2019-Sep-15 23:45 045 0 gusting 1 17.8
2019-Sep-15 23:37 315 0 gusting 1 17.8
2019-Sep-15 23:30 17.8
2019-Sep-15 23:21 17.8
2019-Sep-15 23:14 18.3
2019-Sep-15 23:06 315 0 gusting 1 18.3
2019-Sep-15 22:57 090 0 gusting 1 18.3
2019-Sep-15 22:50 18.3
2019-Sep-15 22:41 18.3
2019-Sep-15 22:34 022 18.3
2019-Sep-15 22:26 18.9
2019-Sep-15 22:19 315 0 gusting 1 18.9
2019-Sep-15 22:11 090 1 gusting 2 18.9
2019-Sep-15 22:03 090 19.4
2019-Sep-15 21:55 090 19.4
2019-Sep-15 21:46 090 0 gusting 1 19.4
2019-Sep-15 21:38 045 0 gusting 1 19.4
2019-Sep-15 21:30 045 19.4
2019-Sep-15 21:22 090 0 gusting 1 19.4
2019-Sep-15 21:15 090 0 gusting 1 19.4
2019-Sep-15 21:07 045 19.4
2019-Sep-15 20:59 045 2 gusting 2 20.0
2019-Sep-15 20:51 20.0
2019-Sep-15 20:43 20.0
2019-Sep-15 20:35 20.6
2019-Sep-15 20:27 20.6
2019-Sep-15 20:19 045 1 gusting 2 20.6
2019-Sep-15 20:11 20.6
2019-Sep-15 20:03 045 1 gusting 2 21.1
2019-Sep-15 19:55 21.1
2019-Sep-15 19:47 022 0 gusting 1 21.1
2019-Sep-15 19:39 045 21.1
2019-Sep-15 19:31 21.1
2019-Sep-15 19:23 21.7
2019-Sep-15 19:16 045 2 gusting 2 21.7
2019-Sep-15 19:07 045 22.2
2019-Sep-15 19:00 315 0 gusting 2 22.2
2019-Sep-15 18:51 315 2 gusting 3 22.8
2019-Sep-15 18:44 22.8
2019-Sep-15 18:35 315 0 gusting 2 22.8
2019-Sep-15 18:28 292 1 gusting 2 22.8
2019-Sep-15 18:20 270 1 gusting 2 22.8
2019-Sep-15 18:11 270 3 gusting 5 22.8
2019-Sep-15 18:03 292 5 gusting 6 22.8
2019-Sep-15 17:54 22.8
2019-Sep-15 17:46 22.8
2019-Sep-15 17:38 337 5 gusting 7 23.3
2019-Sep-15 17:29 23.9
2019-Sep-15 17:22 315 24.4
2019-Sep-15 17:14 315 24.4
2019-Sep-15 17:07 270 1 gusting 2 24.4
2019-Sep-15 16:59 225 2 gusting 4 25.0
2019-Sep-15 16:51 25.0
2019-Sep-15 16:42 26.1
2019-Sep-15 16:33 270 3 gusting 5 26.7
2019-Sep-15 16:25 225 0 gusting 1 27.2
2019-Sep-15 16:18 27.8
2019-Sep-15 16:09 27.8
2019-Sep-15 16:02 045 5 gusting 5 27.8
2019-Sep-15 15:54 045 5 gusting 7 28.3
2019-Sep-15 15:46 337 2 gusting 3 28.3
2019-Sep-15 15:37 270 2 gusting 4 28.3
2019-Sep-15 15:30 28.9
2019-Sep-15 15:22 045 3 gusting 6 28.9
2019-Sep-15 15:13 28.9
2019-Sep-15 15:05 045 5 gusting 6 29.4
2019-Sep-15 14:57 29.4
2019-Sep-15 14:49 090 1 gusting 2 29.4
2019-Sep-15 14:41 090 1 gusting 2 30.0
2019-Sep-15 14:33 022 2 gusting 3 29.4
2019-Sep-15 14:26 045 6 gusting 8 29.4
2019-Sep-15 14:17 045 3 gusting 5 30.0
2019-Sep-15 14:10 045 4 gusting 5 30.0
2019-Sep-15 14:02 090 3 gusting 5 29.4
2019-Sep-15 13:54 090 5 gusting 7 30.0
2019-Sep-15 13:47 30.0
2019-Sep-15 13:38 090 0 gusting 2 30.0
2019-Sep-15 13:29 090 5 gusting 6 30.0
2019-Sep-15 13:21 045 5 gusting 6 30.0
2019-Sep-15 13:13 090 6 gusting 7 30.0
2019-Sep-15 13:05 090 5 gusting 6 30.0
2019-Sep-15 12:57 045 3 gusting 5 29.4
2019-Sep-15 12:50 045 6 gusting 7 29.4
2019-Sep-15 12:42 045 6 gusting 8 28.9
2019-Sep-15 12:34 045 9 gusting 12 29.4
2019-Sep-15 12:25 045 7 gusting 9 28.9
2019-Sep-15 12:17 090 6 gusting 7 29.4
2019-Sep-15 12:08 28.9
2019-Sep-15 12:00 045 10 gusting 13 28.3
2019-Sep-15 11:52 28.3
2019-Sep-15 11:44 022 7 gusting 9 28.3
2019-Sep-15 11:37 022 5 gusting 7 28.9
2019-Sep-15 11:29 28.9
2019-Sep-15 11:21 090 5 gusting 6 28.3
2019-Sep-15 11:13 045 5 gusting 6 28.3
2019-Sep-15 11:05 045 7 gusting 9 28.3
2019-Sep-15 10:56 045 5 gusting 6 27.8
2019-Sep-15 10:48 022 8 gusting 10 27.8
2019-Sep-15 10:40 022 9 gusting 10 27.2
2019-Sep-15 10:32 27.8
2019-Sep-15 10:24 315 6 gusting 7 27.8
2019-Sep-15 10:16 27.2
2019-Sep-15 10:08 022 10 gusting 13 27.2
2019-Sep-15 10:01 045 6 gusting 8 26.7
2019-Sep-15 09:53 045 4 gusting 5 27.2
2019-Sep-15 09:45 090 4 gusting 6 27.2
2019-Sep-15 09:38 090 10 gusting 13 26.7
2019-Sep-15 09:30 26.7
2019-Sep-15 09:22 090 7 gusting 10 26.7
2019-Sep-15 09:15 045 7 gusting 11 26.1
2019-Sep-15 09:07 045 12 gusting 13 26.1
2019-Sep-15 08:59 090 10 gusting 13 26.1
2019-Sep-15 08:50 045 7 gusting 11 25.6
2019-Sep-15 08:42 022 13 gusting 17 25.6
2019-Sep-15 08:33 022 10 gusting 13 25.6
2019-Sep-15 08:25 045 11 gusting 13 25.0
2019-Sep-15 08:17 022 8 gusting 11 25.6
2019-Sep-15 08:08 045 9 gusting 11 25.0
2019-Sep-15 08:00 045 8 gusting 10 25.0
2019-Sep-15 07:52 090 9 gusting 11 25.0
2019-Sep-15 07:45 25.0
2019-Sep-15 07:37 045 10 gusting 14 25.0
2019-Sep-15 07:29 045 2 gusting 5 24.4
2019-Sep-15 07:22 090 9 gusting 11 24.4
2019-Sep-15 07:13 090 8 gusting 10 23.9
2019-Sep-15 07:05 045 6 gusting 9 23.9
2019-Sep-15 06:58 022 8 gusting 12 23.9
2019-Sep-15 06:49 090 4 gusting 6 23.3
2019-Sep-15 06:42 23.3
2019-Sep-15 06:34 045 12 gusting 15 23.9
2019-Sep-15 06:26 090 5 gusting 6 23.9
2019-Sep-15 06:17 045 7 gusting 8 24.4
2019-Sep-15 06:09 225 3 gusting 5 25.6
2019-Sep-15 06:01 337 3 gusting 4 25.6
2019-Sep-15 05:53 25.0
2019-Sep-15 05:45 180 0 gusting 1 24.4
2019-Sep-15 05:37 23.9
2019-Sep-15 05:30 315 2 gusting 2 23.9
2019-Sep-15 05:21 022 5 gusting 6 22.8
2019-Sep-15 05:12 22.8
2019-Sep-15 05:04 090 8 gusting 10 22.8
2019-Sep-15 04:55 315 6 gusting 7 22.2
2019-Sep-15 04:47 270 2 gusting 3 21.7
2019-Sep-15 04:39 090 0 gusting 2 21.7
2019-Sep-15 04:31 315 2 gusting 2 21.1
2019-Sep-15 04:24 315 0 gusting 2 21.1
2019-Sep-15 04:16 180 2 gusting 3 21.7
2019-Sep-15 04:07 090 7 gusting 10 21.7
2019-Sep-15 03:59 022 6 gusting 7 21.7
2019-Sep-15 03:50 22.2
2019-Sep-15 03:41 045 10 gusting 14 22.2
2019-Sep-15 03:33 22.2
2019-Sep-15 03:24 045 8 gusting 12 22.2
2019-Sep-15 03:17 045 13 gusting 19 22.2
2019-Sep-15 03:09 045 13 gusting 19 22.2
2019-Sep-15 03:00 090 10 gusting 13 22.2
2019-Sep-15 02:52 292 10 gusting 13 22.2
2019-Sep-15 02:45 022 14 gusting 19 22.2
2019-Sep-15 02:38 337 12 gusting 16 22.8
2019-Sep-15 02:30 045 16 gusting 19 22.8
2019-Sep-15 02:21 090 12 gusting 13 22.8
2019-Sep-15 02:13 045 13 gusting 17 22.8
2019-Sep-15 02:05 22.8
2019-Sep-15 01:57 090 13 gusting 16 22.8
2019-Sep-15 01:50 022 14 gusting 20 22.8
2019-Sep-15 01:42 090 12 gusting 14 22.8
2019-Sep-15 01:35 045 9 gusting 12 22.8
2019-Sep-15 01:27 22.8
2019-Sep-15 01:19 022 8 gusting 10 22.2
2019-Sep-15 01:11 22.8
2019-Sep-15 01:02 045 11 gusting 13 21.7
2019-Sep-15 00:54 225 0 gusting 1 21.1
2019-Sep-15 00:45 225 0 gusting 1 20.6
2019-Sep-15 00:37 20.6
2019-Sep-15 00:29 270 20.6
2019-Sep-15 00:21 045 1 gusting 2 20.6
2019-Sep-15 00:13 022 2 gusting 3 21.1
2019-Sep-15 00:04 045 2 gusting 3 21.7
2019-Sep-14 23:57 270 0 gusting 1 21.7
2019-Sep-14 23:49 21.7
2019-Sep-14 23:41 22.8
2019-Sep-14 23:33 045 4 gusting 5 22.8
2019-Sep-14 23:25 045 3 gusting 5 23.3
2019-Sep-14 23:17 315 5 gusting 6 23.3
2019-Sep-14 23:09 045 9 gusting 11 23.3
2019-Sep-14 23:01 045 4 gusting 5 23.3
2019-Sep-14 22:54 090 7 gusting 12 23.3
2019-Sep-14 22:47 090 7 gusting 10 23.3
2019-Sep-14 22:39 23.3
2019-Sep-14 22:32 23.3
2019-Sep-14 22:24 045 0 gusting 1 23.3
2019-Sep-14 22:15 270 2 gusting 2 23.3
2019-Sep-14 22:06 045 3 gusting 5 23.9
2019-Sep-14 21:59 23.9
2019-Sep-14 21:52 045 3 gusting 4 23.3
2019-Sep-14 21:43 22.2
2019-Sep-14 21:35 090 1 gusting 2 22.2
2019-Sep-14 21:27 180 22.8
2019-Sep-14 21:20 180 0 gusting 1 23.3
2019-Sep-14 21:11 045 6 gusting 7 23.9
2019-Sep-14 21:03 090 5 gusting 7 23.3
2019-Sep-14 20:56 23.3
2019-Sep-14 20:48 090 1 gusting 2 23.9
2019-Sep-14 20:40 23.9
2019-Sep-14 20:32 045 2 gusting 3 23.9
2019-Sep-14 20:23 135 4 gusting 5 23.3
2019-Sep-14 20:15 090 0 gusting 2 23.3
2019-Sep-14 20:07 180 2 gusting 2 23.3
2019-Sep-14 19:59 23.9
2019-Sep-14 19:51 24.4
2019-Sep-14 19:42 225 3 gusting 4 24.4
2019-Sep-14 19:33 022 3 gusting 5 25.0
2019-Sep-14 19:25 022 6 gusting 7 25.0
2019-Sep-14 19:17 090 3 gusting 5 25.0
2019-Sep-14 19:09 045 2 gusting 3 25.0
2019-Sep-14 19:00 090 5 gusting 6 25.0
2019-Sep-14 18:52 090 1 gusting 3 25.0
2019-Sep-14 18:44 315 6 gusting 8 25.0
2019-Sep-14 18:36 090 3 gusting 4 24.4
2019-Sep-14 18:28 180 2 gusting 4 25.0
2019-Sep-14 18:21 25.6
2019-Sep-14 18:13 25.0
2019-Sep-14 18:06 045 5 gusting 6 25.6
2019-Sep-14 17:59 045 2 gusting 3 25.6
2019-Sep-14 17:51 045 5 gusting 6 25.6
2019-Sep-14 17:44 045 7 gusting 9 25.6
2019-Sep-14 17:35 045 7 gusting 10 25.6
2019-Sep-14 17:26 022 7 gusting 9 25.6
2019-Sep-14 17:18 090 9 gusting 11 25.6
2019-Sep-14 17:09 315 3 gusting 5 25.6
2019-Sep-14 17:01 090 2 gusting 4 25.6
2019-Sep-14 16:53 045 3 gusting 6 26.1
2019-Sep-14 16:45 315 2 gusting 5 26.1
2019-Sep-14 16:38 090 5 gusting 6 26.1
2019-Sep-14 16:30 045 7 gusting 8 26.7
2019-Sep-14 16:22 090 5 gusting 6 27.2
2019-Sep-14 16:14 180 5 gusting 7 27.2
2019-Sep-14 16:05 315 5 gusting 6 27.8